sensor_id;sensor_type;location;lat;lon;timestamp;P1;durP1;ratioP1;P2;durP2;ratioP2
42104;SDS011;70664;51.472;5.712;2023-11-19T00:02:21;7.25;;;1.60;;
42104;SDS011;70664;51.472;5.712;2023-11-19T00:04:47;5.57;;;1.65;;
42104;SDS011;70664;51.472;5.712;2023-11-19T00:07:13;4.18;;;1.67;;
42104;SDS011;70664;51.472;5.712;2023-11-19T00:09:39;4.93;;;1.50;;
42104;SDS011;70664;51.472;5.712;2023-11-19T00:12:05;4.90;;;1.65;;
42104;SDS011;70664;51.472;5.712;2023-11-19T00:14:32;2.90;;;1.27;;
42104;SDS011;70664;51.472;5.712;2023-11-19T00:16:59;3.20;;;1.25;;
42104;SDS011;70664;51.472;5.712;2023-11-19T00:19:25;4.80;;;1.50;;
42104;SDS011;70664;51.472;5.712;2023-11-19T00:21:51;3.38;;;1.35;;
42104;SDS011;70664;51.472;5.712;2023-11-19T00:24:18;3.13;;;1.35;;
42104;SDS011;70664;51.472;5.712;2023-11-19T00:26:45;2.85;;;1.42;;
42104;SDS011;70664;51.472;5.712;2023-11-19T00:29:11;5.47;;;1.52;;
42104;SDS011;70664;51.472;5.712;2023-11-19T00:31:38;3.28;;;1.33;;
42104;SDS011;70664;51.472;5.712;2023-11-19T00:34:04;4.15;;;1.50;;
42104;SDS011;70664;51.472;5.712;2023-11-19T00:36:31;3.47;;;1.40;;
42104;SDS011;70664;51.472;5.712;2023-11-19T00:38:57;2.42;;;1.30;;
42104;SDS011;70664;51.472;5.712;2023-11-19T00:41:23;3.17;;;1.40;;
42104;SDS011;70664;51.472;5.712;2023-11-19T00:43:48;3.25;;;1.38;;
42104;SDS011;70664;51.472;5.712;2023-11-19T00:46:14;2.92;;;1.30;;
42104;SDS011;70664;51.472;5.712;2023-11-19T00:48:40;3.10;;;1.38;;
42104;SDS011;70664;51.472;5.712;2023-11-19T00:51:06;3.83;;;1.35;;
42104;SDS011;70664;51.472;5.712;2023-11-19T00:53:32;3.92;;;1.40;;
42104;SDS011;70664;51.472;5.712;2023-11-19T00:56:02;3.53;;;1.38;;
42104;SDS011;70664;51.472;5.712;2023-11-19T00:58:28;2.28;;;1.20;;
42104;SDS011;70664;51.472;5.712;2023-11-19T01:00:54;2.65;;;1.25;;
42104;SDS011;70664;51.472;5.712;2023-11-19T01:03:22;3.95;;;1.40;;
42104;SDS011;70664;51.472;5.712;2023-11-19T01:05:48;5.53;;;1.38;;
42104;SDS011;70664;51.472;5.712;2023-11-19T01:08:14;2.83;;;1.45;;
42104;SDS011;70664;51.472;5.712;2023-11-19T01:10:41;4.47;;;1.40;;
42104;SDS011;70664;51.472;5.712;2023-11-19T01:13:06;1.63;;;1.13;;
42104;SDS011;70664;51.472;5.712;2023-11-19T01:15:32;3.60;;;1.27;;
42104;SDS011;70664;51.472;5.712;2023-11-19T01:17:58;2.65;;;1.15;;
42104;SDS011;70664;51.472;5.712;2023-11-19T01:20:24;4.43;;;1.33;;
42104;SDS011;70664;51.472;5.712;2023-11-19T01:22:51;2.55;;;1.08;;
42104;SDS011;70664;51.472;5.712;2023-11-19T01:25:17;3.15;;;1.05;;
42104;SDS011;70664;51.472;5.712;2023-11-19T01:27:43;3.42;;;1.10;;
42104;SDS011;70664;51.472;5.712;2023-11-19T01:30:09;4.25;;;1.17;;
42104;SDS011;70664;51.472;5.712;2023-11-19T01:32:38;3.30;;;1.20;;
42104;SDS011;70664;51.472;5.712;2023-11-19T01:35:05;3.38;;;1.10;;
42104;SDS011;70664;51.472;5.712;2023-11-19T01:37:31;3.10;;;1.27;;
42104;SDS011;70664;51.472;5.712;2023-11-19T01:39:57;5.47;;;1.17;;
42104;SDS011;70664;51.472;5.712;2023-11-19T01:42:23;3.17;;;1.20;;
42104;SDS011;70664;51.472;5.712;2023-11-19T01:44:58;3.17;;;1.20;;
42104;SDS011;70664;51.472;5.712;2023-11-19T01:47:25;2.65;;;1.38;;
42104;SDS011;70664;51.472;5.712;2023-11-19T01:49:53;2.58;;;1.40;;
42104;SDS011;70664;51.472;5.712;2023-11-19T01:52:21;3.17;;;1.17;;
42104;SDS011;70664;51.472;5.712;2023-11-19T01:54:47;1.20;;;0.70;;
42104;SDS011;70664;51.472;5.712;2023-11-19T01:57:14;2.15;;;1.10;;
42104;SDS011;70664;51.472;5.712;2023-11-19T01:59:40;4.15;;;1.00;;
42104;SDS011;70664;51.472;5.712;2023-11-19T02:02:07;2.13;;;1.10;;
42104;SDS011;70664;51.472;5.712;2023-11-19T02:04:33;3.63;;;1.20;;
42104;SDS011;70664;51.472;5.712;2023-11-19T02:07:00;3.75;;;1.02;;
42104;SDS011;70664;51.472;5.712;2023-11-19T02:09:26;3.33;;;1.10;;
42104;SDS011;70664;51.472;5.712;2023-11-19T02:11:52;2.28;;;0.93;;
42104;SDS011;70664;51.472;5.712;2023-11-19T02:14:19;3.08;;;1.20;;
42104;SDS011;70664;51.472;5.712;2023-11-19T02:16:51;1.73;;;0.90;;
42104;SDS011;70664;51.472;5.712;2023-11-19T02:19:20;2.63;;;1.33;;
42104;SDS011;70664;51.472;5.712;2023-11-19T02:21:46;2.45;;;1.20;;
42104;SDS011;70664;51.472;5.712;2023-11-19T02:24:13;2.13;;;1.10;;
42104;SDS011;70664;51.472;5.712;2023-11-19T02:29:11;2.00;;;1.30;;
42104;SDS011;70664;51.472;5.712;2023-11-19T02:31:38;3.60;;;1.10;;
42104;SDS011;70664;51.472;5.712;2023-11-19T02:34:04;2.42;;;1.10;;
42104;SDS011;70664;51.472;5.712;2023-11-19T02:36:30;3.03;;;1.20;;
42104;SDS011;70664;51.472;5.712;2023-11-19T02:38:57;2.78;;;1.33;;
42104;SDS011;70664;51.472;5.712;2023-11-19T02:41:23;2.05;;;1.17;;
42104;SDS011;70664;51.472;5.712;2023-11-19T02:43:49;2.58;;;0.95;;
42104;SDS011;70664;51.472;5.712;2023-11-19T02:46:15;2.03;;;1.13;;
42104;SDS011;70664;51.472;5.712;2023-11-19T02:48:42;2.10;;;0.98;;
42104;SDS011;70664;51.472;5.712;2023-11-19T02:51:09;3.05;;;1.20;;
42104;SDS011;70664;51.472;5.712;2023-11-19T02:53:35;2.63;;;1.13;;
42104;SDS011;70664;51.472;5.712;2023-11-19T02:56:04;1.92;;;1.15;;
42104;SDS011;70664;51.472;5.712;2023-11-19T02:58:36;4.40;;;1.10;;
42104;SDS011;70664;51.472;5.712;2023-11-19T03:01:03;2.70;;;1.42;;
42104;SDS011;70664;51.472;5.712;2023-11-19T03:03:48;1.95;;;1.10;;
42104;SDS011;70664;51.472;5.712;2023-11-19T03:06:19;2.08;;;1.10;;
42104;SDS011;70664;51.472;5.712;2023-11-19T03:08:46;3.95;;;1.23;;
42104;SDS011;70664;51.472;5.712;2023-11-19T03:11:13;2.38;;;0.90;;
42104;SDS011;70664;51.472;5.712;2023-11-19T03:13:39;3.28;;;1.10;;
42104;SDS011;70664;51.472;5.712;2023-11-19T03:16:05;2.15;;;1.27;;
42104;SDS011;70664;51.472;5.712;2023-11-19T03:18:32;2.67;;;1.10;;
42104;SDS011;70664;51.472;5.712;2023-11-19T03:20:58;2.45;;;1.17;;
42104;SDS011;70664;51.472;5.712;2023-11-19T03:23:24;2.28;;;0.90;;
42104;SDS011;70664;51.472;5.712;2023-11-19T03:25:53;3.42;;;1.10;;
42104;SDS011;70664;51.472;5.712;2023-11-19T03:28:19;2.58;;;1.10;;
42104;SDS011;70664;51.472;5.712;2023-11-19T03:30:45;3.47;;;1.23;;
42104;SDS011;70664;51.472;5.712;2023-11-19T03:33:10;3.30;;;1.30;;
42104;SDS011;70664;51.472;5.712;2023-11-19T03:35:36;3.97;;;1.23;;
42104;SDS011;70664;51.472;5.712;2023-11-19T03:38:02;2.30;;;1.10;;
42104;SDS011;70664;51.472;5.712;2023-11-19T03:40:28;4.18;;;1.23;;
42104;SDS011;70664;51.472;5.712;2023-11-19T03:42:57;3.42;;;1.20;;
42104;SDS011;70664;51.472;5.712;2023-11-19T03:45:24;6.50;;;1.42;;
42104;SDS011;70664;51.472;5.712;2023-11-19T03:47:50;2.88;;;1.00;;
42104;SDS011;70664;51.472;5.712;2023-11-19T03:50:16;2.83;;;1.00;;
42104;SDS011;70664;51.472;5.712;2023-11-19T03:52:45;3.50;;;1.50;;
42104;SDS011;70664;51.472;5.712;2023-11-19T03:55:11;2.70;;;1.10;;
42104;SDS011;70664;51.472;5.712;2023-11-19T03:57:37;3.85;;;1.20;;
42104;SDS011;70664;51.472;5.712;2023-11-19T04:00:04;2.80;;;1.20;;
42104;SDS011;70664;51.472;5.712;2023-11-19T04:02:36;3.53;;;1.00;;
42104;SDS011;70664;51.472;5.712;2023-11-19T04:05:02;2.03;;;1.20;;
42104;SDS011;70664;51.472;5.712;2023-11-19T04:07:30;3.03;;;1.27;;
42104;SDS011;70664;51.472;5.712;2023-11-19T04:09:56;2.67;;;1.20;;
42104;SDS011;70664;51.472;5.712;2023-11-19T04:12:22;3.38;;;1.10;;
42104;SDS011;70664;51.472;5.712;2023-11-19T04:14:48;3.95;;;1.50;;
42104;SDS011;70664;51.472;5.712;2023-11-19T04:17:14;4.68;;;1.35;;
42104;SDS011;70664;51.472;5.712;2023-11-19T04:19:40;3.28;;;1.10;;
42104;SDS011;70664;51.472;5.712;2023-11-19T04:22:07;3.17;;;1.00;;
42104;SDS011;70664;51.472;5.712;2023-11-19T04:24:36;2.70;;;1.08;;
42104;SDS011;70664;51.472;5.712;2023-11-19T04:27:02;2.80;;;1.30;;
42104;SDS011;70664;51.472;5.712;2023-11-19T04:29:29;3.58;;;1.13;;
42104;SDS011;70664;51.472;5.712;2023-11-19T04:31:56;3.72;;;1.30;;
42104;SDS011;70664;51.472;5.712;2023-11-19T04:34:21;4.10;;;1.10;;
42104;SDS011;70664;51.472;5.712;2023-11-19T04:36:47;3.38;;;1.23;;
42104;SDS011;70664;51.472;5.712;2023-11-19T04:39:14;3.65;;;1.15;;
42104;SDS011;70664;51.472;5.712;2023-11-19T04:41:50;3.20;;;1.25;;
42104;SDS011;70664;51.472;5.712;2023-11-19T04:44:18;4.90;;;1.27;;
42104;SDS011;70664;51.472;5.712;2023-11-19T04:46:44;4.28;;;1.20;;
42104;SDS011;70664;51.472;5.712;2023-11-19T04:49:11;3.38;;;1.23;;
42104;SDS011;70664;51.472;5.712;2023-11-19T04:51:39;3.42;;;1.20;;
42104;SDS011;70664;51.472;5.712;2023-11-19T04:54:06;4.78;;;1.40;;
42104;SDS011;70664;51.472;5.712;2023-11-19T04:56:33;4.68;;;1.20;;
42104;SDS011;70664;51.472;5.712;2023-11-19T04:59:01;3.08;;;1.20;;
42104;SDS011;70664;51.472;5.712;2023-11-19T05:01:27;4.45;;;1.27;;
42104;SDS011;70664;51.472;5.712;2023-11-19T05:03:53;3.53;;;1.25;;
42104;SDS011;70664;51.472;5.712;2023-11-19T05:06:19;5.78;;;1.30;;
42104;SDS011;70664;51.472;5.712;2023-11-19T05:08:45;3.33;;;1.23;;
42104;SDS011;70664;51.472;5.712;2023-11-19T05:11:11;4.38;;;1.33;;
42104;SDS011;70664;51.472;5.712;2023-11-19T05:13:38;4.00;;;1.30;;
42104;SDS011;70664;51.472;5.712;2023-11-19T05:16:04;2.15;;;1.00;;
42104;SDS011;70664;51.472;5.712;2023-11-19T05:18:31;4.95;;;1.15;;
42104;SDS011;70664;51.472;5.712;2023-11-19T05:20:56;2.70;;;1.10;;
42104;SDS011;70664;51.472;5.712;2023-11-19T05:23:22;5.25;;;1.30;;
42104;SDS011;70664;51.472;5.712;2023-11-19T05:25:48;4.20;;;1.20;;
42104;SDS011;70664;51.472;5.712;2023-11-19T05:28:14;5.70;;;1.50;;
42104;SDS011;70664;51.472;5.712;2023-11-19T05:30:40;5.82;;;1.30;;
42104;SDS011;70664;51.472;5.712;2023-11-19T05:33:05;3.75;;;1.40;;
42104;SDS011;70664;51.472;5.712;2023-11-19T05:35:32;3.60;;;1.23;;
42104;SDS011;70664;51.472;5.712;2023-11-19T05:37:59;4.25;;;1.35;;
42104;SDS011;70664;51.472;5.712;2023-11-19T05:40:27;2.55;;;1.27;;
42104;SDS011;70664;51.472;5.712;2023-11-19T05:42:53;4.63;;;1.38;;
42104;SDS011;70664;51.472;5.712;2023-11-19T05:45:18;4.05;;;1.33;;
42104;SDS011;70664;51.472;5.712;2023-11-19T05:47:44;5.07;;;1.38;;
42104;SDS011;70664;51.472;5.712;2023-11-19T05:50:10;3.90;;;1.40;;
42104;SDS011;70664;51.472;5.712;2023-11-19T05:52:36;3.30;;;1.30;;
42104;SDS011;70664;51.472;5.712;2023-11-19T05:55:02;4.93;;;1.77;;
42104;SDS011;70664;51.472;5.712;2023-11-19T05:57:34;5.45;;;1.60;;
42104;SDS011;70664;51.472;5.712;2023-11-19T06:00:02;3.58;;;1.42;;
42104;SDS011;70664;51.472;5.712;2023-11-19T06:02:32;4.00;;;1.27;;
42104;SDS011;70664;51.472;5.712;2023-11-19T06:04:58;5.10;;;1.30;;
42104;SDS011;70664;51.472;5.712;2023-11-19T06:07:24;4.28;;;1.35;;
42104;SDS011;70664;51.472;5.712;2023-11-19T06:09:50;4.47;;;1.70;;
42104;SDS011;70664;51.472;5.712;2023-11-19T06:12:15;6.15;;;1.67;;
42104;SDS011;70664;51.472;5.712;2023-11-19T06:14:41;6.75;;;1.67;;
42104;SDS011;70664;51.472;5.712;2023-11-19T06:17:07;4.55;;;1.50;;
42104;SDS011;70664;51.472;5.712;2023-11-19T06:19:33;5.93;;;1.63;;
42104;SDS011;70664;51.472;5.712;2023-11-19T06:21:59;4.63;;;1.40;;
42104;SDS011;70664;51.472;5.712;2023-11-19T06:24:25;5.35;;;1.48;;
42104;SDS011;70664;51.472;5.712;2023-11-19T06:26:51;4.20;;;1.30;;
42104;SDS011;70664;51.472;5.712;2023-11-19T06:29:16;4.90;;;1.42;;
42104;SDS011;70664;51.472;5.712;2023-11-19T06:31:44;5.85;;;1.75;;
42104;SDS011;70664;51.472;5.712;2023-11-19T06:34:13;5.25;;;1.83;;
42104;SDS011;70664;51.472;5.712;2023-11-19T06:36:39;5.18;;;1.40;;
42104;SDS011;70664;51.472;5.712;2023-11-19T06:39:05;4.40;;;1.20;;
42104;SDS011;70664;51.472;5.712;2023-11-19T06:41:31;5.45;;;1.45;;
42104;SDS011;70664;51.472;5.712;2023-11-19T06:43:57;3.58;;;1.38;;
42104;SDS011;70664;51.472;5.712;2023-11-19T06:46:23;6.25;;;1.60;;
42104;SDS011;70664;51.472;5.712;2023-11-19T06:48:48;3.47;;;1.50;;
42104;SDS011;70664;51.472;5.712;2023-11-19T06:51:14;6.38;;;1.55;;
42104;SDS011;70664;51.472;5.712;2023-11-19T06:53:40;6.35;;;1.75;;
42104;SDS011;70664;51.472;5.712;2023-11-19T06:56:22;6.00;;;1.45;;
42104;SDS011;70664;51.472;5.712;2023-11-19T06:58:52;4.32;;;1.38;;
42104;SDS011;70664;51.472;5.712;2023-11-19T07:01:18;4.95;;;1.77;;
42104;SDS011;70664;51.472;5.712;2023-11-19T07:03:47;5.55;;;1.88;;
42104;SDS011;70664;51.472;5.712;2023-11-19T07:06:13;4.50;;;1.30;;
42104;SDS011;70664;51.472;5.712;2023-11-19T07:08:42;4.82;;;1.70;;
42104;SDS011;70664;51.472;5.712;2023-11-19T07:11:12;3.60;;;1.50;;
42104;SDS011;70664;51.472;5.712;2023-11-19T07:13:42;6.47;;;1.70;;
42104;SDS011;70664;51.472;5.712;2023-11-19T07:16:08;5.40;;;1.67;;
42104;SDS011;70664;51.472;5.712;2023-11-19T07:18:37;5.50;;;1.33;;
42104;SDS011;70664;51.472;5.712;2023-11-19T07:21:04;5.55;;;1.80;;
42104;SDS011;70664;51.472;5.712;2023-11-19T07:23:30;4.53;;;1.30;;
42104;SDS011;70664;51.472;5.712;2023-11-19T07:25:56;5.72;;;1.92;;
42104;SDS011;70664;51.472;5.712;2023-11-19T07:28:21;5.72;;;1.67;;
42104;SDS011;70664;51.472;5.712;2023-11-19T07:30:47;6.35;;;1.60;;
42104;SDS011;70664;51.472;5.712;2023-11-19T07:33:14;5.28;;;1.63;;
42104;SDS011;70664;51.472;5.712;2023-11-19T07:35:40;5.80;;;1.60;;
42104;SDS011;70664;51.472;5.712;2023-11-19T07:38:08;5.05;;;1.33;;
42104;SDS011;70664;51.472;5.712;2023-11-19T07:40:34;5.05;;;1.48;;
42104;SDS011;70664;51.472;5.712;2023-11-19T07:43:00;5.18;;;1.65;;
42104;SDS011;70664;51.472;5.712;2023-11-19T07:45:26;5.13;;;1.52;;
42104;SDS011;70664;51.472;5.712;2023-11-19T07:47:52;5.85;;;1.67;;
42104;SDS011;70664;51.472;5.712;2023-11-19T07:50:19;5.22;;;1.52;;
42104;SDS011;70664;51.472;5.712;2023-11-19T07:52:45;3.95;;;1.65;;
42104;SDS011;70664;51.472;5.712;2023-11-19T07:55:11;8.02;;;2.03;;
42104;SDS011;70664;51.472;5.712;2023-11-19T07:57:37;6.38;;;1.70;;
42104;SDS011;70664;51.472;5.712;2023-11-19T08:00:03;5.47;;;1.88;;
42104;SDS011;70664;51.472;5.712;2023-11-19T08:02:30;6.05;;;1.80;;
42104;SDS011;70664;51.472;5.712;2023-11-19T08:04:55;6.72;;;1.70;;
42104;SDS011;70664;51.472;5.712;2023-11-19T08:07:21;4.60;;;1.65;;
42104;SDS011;70664;51.472;5.712;2023-11-19T08:09:47;8.75;;;2.28;;
42104;SDS011;70664;51.472;5.712;2023-11-19T08:12:13;7.15;;;1.50;;
42104;SDS011;70664;51.472;5.712;2023-11-19T08:14:40;4.90;;;1.85;;
42104;SDS011;70664;51.472;5.712;2023-11-19T08:17:08;4.88;;;1.50;;
42104;SDS011;70664;51.472;5.712;2023-11-19T08:19:34;4.45;;;1.48;;
42104;SDS011;70664;51.472;5.712;2023-11-19T08:22:00;6.43;;;1.90;;
42104;SDS011;70664;51.472;5.712;2023-11-19T08:24:27;6.53;;;1.80;;
42104;SDS011;70664;51.472;5.712;2023-11-19T08:26:53;6.15;;;1.88;;
42104;SDS011;70664;51.472;5.712;2023-11-19T08:29:19;5.93;;;1.60;;
42104;SDS011;70664;51.472;5.712;2023-11-19T08:31:46;4.70;;;1.60;;
42104;SDS011;70664;51.472;5.712;2023-11-19T08:34:12;8.73;;;1.67;;
42104;SDS011;70664;51.472;5.712;2023-11-19T08:36:37;7.25;;;1.70;;
42104;SDS011;70664;51.472;5.712;2023-11-19T08:39:03;3.83;;;1.40;;
42104;SDS011;70664;51.472;5.712;2023-11-19T08:41:29;6.60;;;1.85;;
42104;SDS011;70664;51.472;5.712;2023-11-19T08:43:55;7.50;;;1.80;;
42104;SDS011;70664;51.472;5.712;2023-11-19T08:46:20;6.05;;;1.90;;
42104;SDS011;70664;51.472;5.712;2023-11-19T08:48:46;5.97;;;1.90;;
42104;SDS011;70664;51.472;5.712;2023-11-19T08:51:12;9.65;;;2.17;;
42104;SDS011;70664;51.472;5.712;2023-11-19T08:53:38;7.72;;;2.20;;
42104;SDS011;70664;51.472;5.712;2023-11-19T08:56:04;7.20;;;1.73;;
42104;SDS011;70664;51.472;5.712;2023-11-19T08:58:30;6.75;;;1.90;;
42104;SDS011;70664;51.472;5.712;2023-11-19T09:00:56;5.03;;;1.52;;
42104;SDS011;70664;51.472;5.712;2023-11-19T09:03:22;7.22;;;2.00;;
42104;SDS011;70664;51.472;5.712;2023-11-19T09:05:49;6.47;;;2.13;;
42104;SDS011;70664;51.472;5.712;2023-11-19T09:08:14;10.43;;;2.15;;
42104;SDS011;70664;51.472;5.712;2023-11-19T09:10:40;8.23;;;1.70;;
42104;SDS011;70664;51.472;5.712;2023-11-19T09:13:06;5.85;;;1.85;;
42104;SDS011;70664;51.472;5.712;2023-11-19T09:15:32;5.45;;;2.10;;
42104;SDS011;70664;51.472;5.712;2023-11-19T09:17:58;7.03;;;1.90;;
42104;SDS011;70664;51.472;5.712;2023-11-19T09:20:24;8.65;;;2.08;;
42104;SDS011;70664;51.472;5.712;2023-11-19T09:22:50;6.28;;;2.15;;
42104;SDS011;70664;51.472;5.712;2023-11-19T09:25:16;8.63;;;1.88;;
42104;SDS011;70664;51.472;5.712;2023-11-19T09:27:43;7.65;;;1.88;;
42104;SDS011;70664;51.472;5.712;2023-11-19T09:30:09;8.32;;;2.20;;
42104;SDS011;70664;51.472;5.712;2023-11-19T09:32:35;8.65;;;2.35;;
42104;SDS011;70664;51.472;5.712;2023-11-19T09:35:02;7.38;;;1.90;;
42104;SDS011;70664;51.472;5.712;2023-11-19T09:37:29;8.15;;;2.10;;
42104;SDS011;70664;51.472;5.712;2023-11-19T09:39:54;10.05;;;2.00;;
42104;SDS011;70664;51.472;5.712;2023-11-19T09:42:21;7.78;;;2.10;;
42104;SDS011;70664;51.472;5.712;2023-11-19T09:44:48;10.27;;;2.15;;
42104;SDS011;70664;51.472;5.712;2023-11-19T09:47:14;9.50;;;2.05;;
42104;SDS011;70664;51.472;5.712;2023-11-19T09:49:42;7.05;;;1.88;;
42104;SDS011;70664;51.472;5.712;2023-11-19T09:52:08;9.60;;;2.22;;
42104;SDS011;70664;51.472;5.712;2023-11-19T09:54:34;10.23;;;1.98;;
42104;SDS011;70664;51.472;5.712;2023-11-19T09:57:01;7.70;;;1.98;;
42104;SDS011;70664;51.472;5.712;2023-11-19T09:59:29;6.75;;;1.85;;
42104;SDS011;70664;51.472;5.712;2023-11-19T10:01:56;7.00;;;2.20;;
42104;SDS011;70664;51.472;5.712;2023-11-19T10:04:22;8.15;;;2.00;;
42104;SDS011;70664;51.472;5.712;2023-11-19T10:06:49;6.18;;;1.83;;
42104;SDS011;70664;51.472;5.712;2023-11-19T10:09:16;8.65;;;2.17;;
42104;SDS011;70664;51.472;5.712;2023-11-19T10:11:42;11.23;;;2.35;;
42104;SDS011;70664;51.472;5.712;2023-11-19T10:14:08;9.50;;;2.55;;
42104;SDS011;70664;51.472;5.712;2023-11-19T10:16:34;9.32;;;2.40;;
42104;SDS011;70664;51.472;5.712;2023-11-19T10:19:00;9.13;;;2.08;;
42104;SDS011;70664;51.472;5.712;2023-11-19T10:21:26;10.50;;;2.10;;
42104;SDS011;70664;51.472;5.712;2023-11-19T10:23:56;8.30;;;2.00;;
42104;SDS011;70664;51.472;5.712;2023-11-19T10:26:25;8.43;;;2.45;;
42104;SDS011;70664;51.472;5.712;2023-11-19T10:28:52;8.65;;;2.47;;
42104;SDS011;70664;51.472;5.712;2023-11-19T10:31:18;9.15;;;1.98;;
42104;SDS011;70664;51.472;5.712;2023-11-19T10:33:50;7.78;;;2.00;;
42104;SDS011;70664;51.472;5.712;2023-11-19T10:36:16;6.63;;;1.73;;
42104;SDS011;70664;51.472;5.712;2023-11-19T10:38:51;9.73;;;2.40;;
42104;SDS011;70664;51.472;5.712;2023-11-19T10:41:31;9.40;;;2.15;;
42104;SDS011;70664;51.472;5.712;2023-11-19T10:43:58;7.32;;;2.10;;
42104;SDS011;70664;51.472;5.712;2023-11-19T10:46:35;8.15;;;2.63;;
42104;SDS011;70664;51.472;5.712;2023-11-19T10:49:04;6.80;;;1.88;;
42104;SDS011;70664;51.472;5.712;2023-11-19T10:51:31;8.75;;;2.10;;
42104;SDS011;70664;51.472;5.712;2023-11-19T10:54:06;11.38;;;2.63;;
42104;SDS011;70664;51.472;5.712;2023-11-19T10:56:34;12.13;;;2.28;;
42104;SDS011;70664;51.472;5.712;2023-11-19T10:59:00;13.07;;;2.47;;
42104;SDS011;70664;51.472;5.712;2023-11-19T11:01:33;10.77;;;2.40;;
42104;SDS011;70664;51.472;5.712;2023-11-19T11:04:15;10.27;;;2.20;;
42104;SDS011;70664;51.472;5.712;2023-11-19T11:06:53;10.38;;;2.40;;
42104;SDS011;70664;51.472;5.712;2023-11-19T11:09:23;9.75;;;2.42;;
42104;SDS011;70664;51.472;5.712;2023-11-19T11:11:52;9.68;;;2.33;;
42104;SDS011;70664;51.472;5.712;2023-11-19T11:14:19;14.40;;;2.20;;
42104;SDS011;70664;51.472;5.712;2023-11-19T11:16:48;10.30;;;2.65;;
42104;SDS011;70664;51.472;5.712;2023-11-19T11:19:17;9.18;;;2.08;;
42104;SDS011;70664;51.472;5.712;2023-11-19T11:21:44;13.40;;;2.55;;
42104;SDS011;70664;51.472;5.712;2023-11-19T11:27:24;7.82;;;2.22;;
42104;SDS011;70664;51.472;5.712;2023-11-19T11:31:39;7.80;;;2.20;;
42104;SDS011;70664;51.472;5.712;2023-11-19T11:37:26;6.57;;;2.13;;
42104;SDS011;70664;51.472;5.712;2023-11-19T11:40:04;6.97;;;2.20;;
42104;SDS011;70664;51.472;5.712;2023-11-19T11:42:35;11.02;;;2.60;;
42104;SDS011;70664;51.472;5.712;2023-11-19T11:45:08;8.55;;;2.17;;
42104;SDS011;70664;51.472;5.712;2023-11-19T11:50:17;8.23;;;2.15;;
42104;SDS011;70664;51.472;5.712;2023-11-19T11:57:50;10.20;;;2.13;;
42104;SDS011;70664;51.472;5.712;2023-11-19T12:00:49;8.85;;;2.15;;
42104;SDS011;70664;51.472;5.712;2023-11-19T12:03:08;9.88;;;2.35;;
42104;SDS011;70664;51.472;5.712;2023-11-19T12:05:43;11.80;;;2.42;;
42104;SDS011;70664;51.472;5.712;2023-11-19T12:08:11;13.10;;;2.63;;
42104;SDS011;70664;51.472;5.712;2023-11-19T12:13:13;8.73;;;2.10;;
42104;SDS011;70664;51.472;5.712;2023-11-19T12:18:27;12.70;;;2.53;;
42104;SDS011;70664;51.472;5.712;2023-11-19T12:20:55;8.43;;;2.35;;
42104;SDS011;70664;51.472;5.712;2023-11-19T12:23:22;8.82;;;1.98;;
42104;SDS011;70664;51.472;5.712;2023-11-19T12:25:49;8.50;;;2.20;;
42104;SDS011;70664;51.472;5.712;2023-11-19T12:28:15;6.88;;;1.92;;
42104;SDS011;70664;51.472;5.712;2023-11-19T12:30:42;7.47;;;2.05;;
42104;SDS011;70664;51.472;5.712;2023-11-19T12:33:09;12.30;;;2.10;;
42104;SDS011;70664;51.472;5.712;2023-11-19T12:35:39;10.73;;;2.30;;
42104;SDS011;70664;51.472;5.712;2023-11-19T12:38:07;9.63;;;2.47;;
42104;SDS011;70664;51.472;5.712;2023-11-19T12:40:33;10.70;;;2.50;;
42104;SDS011;70664;51.472;5.712;2023-11-19T12:42:59;8.00;;;1.70;;
42104;SDS011;70664;51.472;5.712;2023-11-19T12:45:27;10.23;;;2.70;;
42104;SDS011;70664;51.472;5.712;2023-11-19T12:48:04;8.43;;;1.98;;
42104;SDS011;70664;51.472;5.712;2023-11-19T12:53:24;8.50;;;2.28;;
42104;SDS011;70664;51.472;5.712;2023-11-19T12:55:52;6.10;;;2.05;;
42104;SDS011;70664;51.472;5.712;2023-11-19T12:58:30;9.63;;;2.28;;
42104;SDS011;70664;51.472;5.712;2023-11-19T13:01:07;11.40;;;2.05;;
42104;SDS011;70664;51.472;5.712;2023-11-19T13:03:35;10.68;;;2.20;;
42104;SDS011;70664;51.472;5.712;2023-11-19T13:11:09;8.82;;;2.03;;
42104;SDS011;70664;51.472;5.712;2023-11-19T13:13:56;8.25;;;2.33;;
42104;SDS011;70664;51.472;5.712;2023-11-19T13:16:29;9.80;;;2.35;;
42104;SDS011;70664;51.472;5.712;2023-11-19T13:18:56;10.68;;;2.30;;
42104;SDS011;70664;51.472;5.712;2023-11-19T13:21:23;6.43;;;2.22;;
42104;SDS011;70664;51.472;5.712;2023-11-19T13:23:49;7.85;;;2.03;;
42104;SDS011;70664;51.472;5.712;2023-11-19T13:26:15;11.32;;;2.42;;
42104;SDS011;70664;51.472;5.712;2023-11-19T13:28:41;7.90;;;2.40;;
42104;SDS011;70664;51.472;5.712;2023-11-19T13:31:07;12.57;;;2.30;;
42104;SDS011;70664;51.472;5.712;2023-11-19T13:33:33;8.93;;;2.45;;
42104;SDS011;70664;51.472;5.712;2023-11-19T13:35:59;6.55;;;2.03;;
42104;SDS011;70664;51.472;5.712;2023-11-19T13:38:30;11.60;;;2.55;;
42104;SDS011;70664;51.472;5.712;2023-11-19T13:41:00;11.95;;;2.38;;
42104;SDS011;70664;51.472;5.712;2023-11-19T13:43:27;10.30;;;2.22;;
42104;SDS011;70664;51.472;5.712;2023-11-19T13:45:54;9.20;;;2.08;;
42104;SDS011;70664;51.472;5.712;2023-11-19T13:48:20;7.72;;;1.92;;
42104;SDS011;70664;51.472;5.712;2023-11-19T13:50:46;12.38;;;2.35;;
42104;SDS011;70664;51.472;5.712;2023-11-19T13:53:12;8.82;;;2.20;;
42104;SDS011;70664;51.472;5.712;2023-11-19T13:55:38;7.75;;;1.83;;
42104;SDS011;70664;51.472;5.712;2023-11-19T13:58:03;10.73;;;2.25;;
42104;SDS011;70664;51.472;5.712;2023-11-19T14:00:29;7.63;;;1.77;;
42104;SDS011;70664;51.472;5.712;2023-11-19T14:02:55;8.27;;;1.95;;
42104;SDS011;70664;51.472;5.712;2023-11-19T14:05:20;8.10;;;1.95;;
42104;SDS011;70664;51.472;5.712;2023-11-19T14:07:48;9.98;;;2.30;;
42104;SDS011;70664;51.472;5.712;2023-11-19T14:10:15;9.85;;;2.25;;
42104;SDS011;70664;51.472;5.712;2023-11-19T14:12:41;5.50;;;2.10;;
42104;SDS011;70664;51.472;5.712;2023-11-19T14:15:07;11.40;;;1.98;;
42104;SDS011;70664;51.472;5.712;2023-11-19T14:17:35;10.52;;;2.13;;
42104;SDS011;70664;51.472;5.712;2023-11-19T14:20:04;8.05;;;2.50;;
42104;SDS011;70664;51.472;5.712;2023-11-19T14:22:42;7.68;;;2.13;;
42104;SDS011;70664;51.472;5.712;2023-11-19T14:25:09;8.30;;;2.13;;
42104;SDS011;70664;51.472;5.712;2023-11-19T14:27:36;9.95;;;2.55;;
42104;SDS011;70664;51.472;5.712;2023-11-19T14:30:04;6.95;;;2.08;;
42104;SDS011;70664;51.472;5.712;2023-11-19T14:35:07;9.60;;;2.13;;
42104;SDS011;70664;51.472;5.712;2023-11-19T14:37:33;8.60;;;2.40;;
42104;SDS011;70664;51.472;5.712;2023-11-19T14:39:59;9.60;;;2.25;;
42104;SDS011;70664;51.472;5.712;2023-11-19T14:42:33;8.68;;;1.95;;
42104;SDS011;70664;51.472;5.712;2023-11-19T14:44:59;10.85;;;2.50;;
42104;SDS011;70664;51.472;5.712;2023-11-19T14:47:25;8.05;;;2.42;;
42104;SDS011;70664;51.472;5.712;2023-11-19T14:49:51;11.65;;;2.10;;
42104;SDS011;70664;51.472;5.712;2023-11-19T14:52:16;7.28;;;2.05;;
42104;SDS011;70664;51.472;5.712;2023-11-19T14:54:42;12.88;;;2.13;;
42104;SDS011;70664;51.472;5.712;2023-11-19T14:57:08;7.32;;;2.13;;
42104;SDS011;70664;51.472;5.712;2023-11-19T14:59:34;9.00;;;2.22;;
42104;SDS011;70664;51.472;5.712;2023-11-19T15:02:03;12.10;;;2.10;;
42104;SDS011;70664;51.472;5.712;2023-11-19T15:04:30;9.40;;;2.30;;
42104;SDS011;70664;51.472;5.712;2023-11-19T15:06:56;6.10;;;2.00;;
42104;SDS011;70664;51.472;5.712;2023-11-19T15:09:23;8.18;;;2.20;;
42104;SDS011;70664;51.472;5.712;2023-11-19T15:11:49;9.95;;;2.15;;
42104;SDS011;70664;51.472;5.712;2023-11-19T15:14:16;7.57;;;2.10;;
42104;SDS011;70664;51.472;5.712;2023-11-19T15:16:44;9.93;;;2.15;;
42104;SDS011;70664;51.472;5.712;2023-11-19T15:19:11;7.68;;;1.88;;
42104;SDS011;70664;51.472;5.712;2023-11-19T15:21:39;8.20;;;2.10;;